Terminal Aerodrome Forecast
Issued by NWS

Home | Current Version | Previous Version | Text Only | Print | Product List | Glossary On
Versions: 1 2 3 4 5 6 7 8 9 10 11 12 13 14
323
FTUS42 TJSJ 250520
TAFJBQ
TAF
TJBQ 250520Z 2506/2606 12005KT P6SM FEW025 SCT060
     FM251530 VRB10KT P6SM VCTS SCT025CB BKN040
     FM252300 11008KT P6SM VCTS SCT025CB BKN060=

USA.gov is the U.S. government's official web portal to all federal, state and local government web resources and services.